createdAt,value
2018-04-23T14:33:53.299Z,931.5
2018-04-23T14:34:05.805Z,931.5
2018-04-23T14:34:18.788Z,931.53
2018-04-23T14:34:31.264Z,931.53
2018-04-23T14:34:43.287Z,931.54
2018-04-23T14:34:56.309Z,931.47
2018-04-23T14:35:08.805Z,931.52
2018-04-23T14:35:20.854Z,931.51
2018-04-23T14:35:33.765Z,931.48
2018-04-23T14:35:46.729Z,931.48
2018-04-23T14:35:59.289Z,931.5
2018-04-23T14:36:11.838Z,931.51
2018-04-23T14:36:24.398Z,931.51
2018-04-23T14:36:36.926Z,931.48
2018-04-23T14:36:49.932Z,931.46
2018-04-23T14:37:02.930Z,931.52
2018-04-23T14:37:15.891Z,931.53
2018-04-23T14:37:28.426Z,931.49
2018-04-23T14:37:41.476Z,931.48
2018-04-23T14:37:53.987Z,931.51
2018-04-23T14:38:06.488Z,931.49
2018-04-23T14:38:19.030Z,931.48
2018-04-23T14:38:31.542Z,931.53
2018-04-23T14:38:44.571Z,931.51
2018-04-23T14:38:57.564Z,931.47
2018-04-23T14:39:10.491Z,931.49
2018-04-23T14:39:23.429Z,931.49
2018-04-23T14:39:35.932Z,931.47
2018-04-23T14:39:48.918Z,931.49
2018-04-23T14:40:01.450Z,931.49
2018-04-23T14:40:14.424Z,931.48
2018-04-23T14:40:27.421Z,931.44
2018-04-23T14:40:39.460Z,931.48
2018-04-23T14:40:52.026Z,931.44
2018-04-23T14:41:04.544Z,931.45
2018-04-23T14:41:17.049Z,931.45
2018-04-23T14:41:29.554Z,931.43
2018-04-23T14:41:42.084Z,931.44
2018-04-23T14:41:54.620Z,931.43
2018-04-23T14:42:07.549Z,931.42
2018-04-23T14:42:20.596Z,931.46
2018-04-23T14:42:33.114Z,931.41
2018-04-23T14:42:46.070Z,931.41
2018-04-23T14:42:58.593Z,931.38
2018-04-23T14:43:11.574Z,931.38
2018-04-23T14:43:24.555Z,931.4
2018-04-23T14:43:37.499Z,931.39
2018-04-23T14:43:50.016Z,931.35
2018-04-23T14:44:02.556Z,931.34
2018-04-23T14:44:14.096Z,931.38
2018-04-23T14:44:26.647Z,931.37
2018-04-23T14:44:39.226Z,931.37
2018-04-23T14:44:52.171Z,931.35
2018-04-23T14:45:04.654Z,931.35
2018-04-23T14:45:17.668Z,931.31
2018-04-23T14:45:30.353Z,931.31
2018-04-23T14:45:43.361Z,931.32
2018-04-23T14:45:55.882Z,931.31
2018-04-23T14:46:07.929Z,931.34
2018-04-23T14:46:20.902Z,931.3
2018-04-23T14:46:33.892Z,931.31
2018-04-23T14:46:46.424Z,931.31
2018-04-23T14:46:58.909Z,931.3
2018-04-23T14:47:10.956Z,931.27
2018-04-23T14:47:23.935Z,931.3
2018-04-23T14:47:35.997Z,931.29
2018-04-23T14:47:48.006Z,931.28
2018-04-23T14:48:00.497Z,931.32
2018-04-23T14:48:12.524Z,931.3
2018-04-23T14:48:24.567Z,931.3
2018-04-23T14:48:37.651Z,931.3
2018-04-23T14:48:50.194Z,931.28
2018-04-23T14:49:04.173Z,931.29
2018-04-23T14:49:16.230Z,931.28
2018-04-23T14:49:29.274Z,931.29
2018-04-23T14:49:42.296Z,931.3
2018-04-23T14:49:54.756Z,931.28
2018-04-23T14:50:07.261Z,931.3
2018-04-23T14:50:19.289Z,931.27
2018-04-23T14:50:31.846Z,931.3
2018-04-23T14:50:44.327Z,931.3
2018-04-23T14:50:56.854Z,931.32
2018-04-23T14:51:09.821Z,931.35
2018-04-23T14:51:21.848Z,931.34
2018-04-23T14:51:34.392Z,931.3
2018-04-23T14:51:47.346Z,931.35
2018-04-23T14:51:59.851Z,931.33
2018-04-23T14:52:12.823Z,931.35
2018-04-23T14:52:25.805Z,931.33
2018-04-23T14:52:38.752Z,931.32
2018-04-23T14:52:51.775Z,931.31
2018-04-23T14:53:04.383Z,931.31
2018-04-23T14:53:16.938Z,931.31
2018-04-23T14:53:29.894Z,931.3
2018-04-23T14:53:42.405Z,931.33
2018-04-23T14:53:55.400Z,931.34
2018-04-23T14:54:07.445Z,931.3
2018-04-23T14:54:19.523Z,931.33
2018-04-23T14:54:32.565Z,931.36
2018-04-23T14:54:45.090Z,931.36
2018-04-23T14:54:58.008Z,931.31
2018-04-23T14:55:09.985Z,931.3
2018-04-23T14:55:22.534Z,931.34
2018-04-23T14:55:34.681Z,931.34
2018-04-23T14:55:47.678Z,931.34
2018-04-23T14:56:00.666Z,931.33
2018-04-23T14:56:13.630Z,931.32
2018-04-23T14:56:25.675Z,931.33
2018-04-23T14:56:37.766Z,931.3
2018-04-23T14:56:50.243Z,931.26
2018-04-23T14:57:03.193Z,931.32
2018-04-23T14:57:16.152Z,931.29
2018-04-23T14:57:29.071Z,931.29
2018-04-23T14:57:41.631Z,931.32
2018-04-23T14:57:54.585Z,931.28
2018-04-23T14:58:07.181Z,931.28
2018-04-23T14:58:19.748Z,931.24
2018-04-23T14:58:32.231Z,931.23
2018-04-23T14:58:43.807Z,931.24
2018-04-23T14:58:55.367Z,931.24
2018-04-23T14:59:08.299Z,931.26
2018-04-23T14:59:20.832Z,931.26
2018-04-23T14:59:33.291Z,931.23
2018-04-23T14:59:46.641Z,931.27
2018-04-23T15:00:01.777Z,931.23
2018-04-23T15:00:15.060Z,931.27
2018-04-23T15:00:27.941Z,931.25
2018-04-23T15:00:40.319Z,931.28
2018-04-23T15:00:53.085Z,931.26
2018-04-23T15:01:05.694Z,931.24
2018-04-23T15:01:18.179Z,931.25
2018-04-23T15:01:30.733Z,931.23
2018-04-23T15:01:43.698Z,931.25
2018-04-23T15:01:55.760Z,931.26
2018-04-23T15:02:08.691Z,931.26
2018-04-23T15:02:21.201Z,931.24
2018-04-23T15:02:34.188Z,931.23
2018-04-23T15:02:46.753Z,931.25
2018-04-23T15:02:59.690Z,931.19
2018-04-23T15:03:12.214Z,931.16
2018-04-23T15:03:25.188Z,931.1
2018-04-23T15:03:38.101Z,931.1
2018-04-23T15:03:50.630Z,931.13
2018-04-23T15:04:03.668Z,931.11
2018-04-23T15:04:15.919Z,931.16
2018-04-23T15:04:28.444Z,931.15
2018-04-23T15:04:41.491Z,931.1
2018-04-23T15:04:54.006Z,931.1
2018-04-23T15:05:06.566Z,931.05
2018-04-23T15:05:19.115Z,931.07
2018-04-23T15:05:32.085Z,931.05
2018-04-23T15:05:45.061Z,931.07
2018-04-23T15:05:58.095Z,931.05
2018-04-23T15:06:11.023Z,931.08
2018-04-23T15:06:24.006Z,931.01
2018-04-23T15:06:36.947Z,931.02
2018-04-23T15:06:49.513Z,931.07
2018-04-23T15:07:01.555Z,931.13
2018-04-23T15:07:14.542Z,931.17
2018-04-23T15:07:27.018Z,931.17
2018-04-23T15:07:39.027Z,931.13
2018-04-23T15:07:51.974Z,931.11
2018-04-23T15:08:04.983Z,931.13
2018-04-23T15:08:17.018Z,931.09
2018-04-23T15:08:30.225Z,931.08
2018-04-23T15:08:43.207Z,931.01
2018-04-23T15:08:55.238Z,930.99
2018-04-23T15:09:06.835Z,930.93
2018-04-23T15:09:19.358Z,930.92
2018-04-23T15:09:31.935Z,930.91
2018-04-23T15:09:44.466Z,930.9
2018-04-23T15:09:56.929Z,930.89
2018-04-23T15:10:08.477Z,930.86
2018-04-23T15:10:21.007Z,930.87
2018-04-23T15:10:33.578Z,930.9
2018-04-23T15:10:45.630Z,930.85
2018-04-23T15:10:58.623Z,930.83
2018-04-23T15:11:11.162Z,930.82
2018-04-23T15:11:23.706Z,930.8
2018-04-23T15:11:36.182Z,930.77
2018-04-23T15:11:49.138Z,930.76
2018-04-23T15:12:02.097Z,930.75
2018-04-23T15:12:15.111Z,930.76
2018-04-23T15:12:28.103Z,930.74
2018-04-23T15:12:41.049Z,930.73
2018-04-23T15:12:54.035Z,930.71
2018-04-23T15:13:06.566Z,930.74
2018-04-23T15:13:19.595Z,930.72
2018-04-23T15:13:31.600Z,930.74
2018-04-23T15:13:44.546Z,930.72
2018-04-23T15:13:56.603Z,930.71
2018-04-23T15:14:09.590Z,930.7
2018-04-23T15:14:22.134Z,930.71
2018-04-23T15:14:34.164Z,930.75
2018-04-23T15:14:46.209Z,930.75
2018-04-23T15:14:58.730Z,930.75
2018-04-23T15:15:09.846Z,930.78
2018-04-23T15:15:22.813Z,930.81
2018-04-23T15:15:34.933Z,930.77
2018-04-23T15:15:47.951Z,930.8
2018-04-23T15:16:00.485Z,930.8
2018-04-23T15:16:12.570Z,930.82
2018-04-23T15:16:25.084Z,930.82
2018-04-23T15:16:37.136Z,930.81
2018-04-23T15:16:49.654Z,930.78
2018-04-23T15:17:02.203Z,930.82
2018-04-23T15:17:15.223Z,930.78
2018-04-23T15:17:28.218Z,930.81
2018-04-23T15:17:41.186Z,930.81
2018-04-23T15:17:54.369Z,930.78
2018-04-23T15:18:06.847Z,930.79
2018-04-23T15:18:18.864Z,930.76
2018-04-23T15:18:30.901Z,930.79
2018-04-23T15:18:42.966Z,930.79
2018-04-23T15:18:55.460Z,930.83
2018-04-23T15:19:08.422Z,930.83
2018-04-23T15:19:21.652Z,930.81
2018-04-23T15:19:34.627Z,930.82
2018-04-23T15:19:46.186Z,930.84
2018-04-23T15:19:58.687Z,930.85
2018-04-23T15:20:11.174Z,930.86
2018-04-23T15:20:24.158Z,930.81
2018-04-23T15:20:37.088Z,930.83
2018-04-23T15:20:50.099Z,930.84
2018-04-23T15:21:03.089Z,930.81
2018-04-23T15:21:15.599Z,930.8
2018-04-23T15:21:28.545Z,930.8
2018-04-23T15:21:41.061Z,930.79
2018-04-23T15:21:54.045Z,930.73
2018-04-23T15:22:07.069Z,930.73
2018-04-23T15:22:20.080Z,930.75
2018-04-23T15:22:33.038Z,930.8
2018-04-23T15:22:45.977Z,930.76
2018-04-23T15:22:58.894Z,930.73
2018-04-23T15:23:10.953Z,930.74
2018-04-23T15:23:23.442Z,930.75
2018-04-23T15:23:36.430Z,930.73
2018-04-23T15:23:48.933Z,930.72
2018-04-23T15:24:01.435Z,930.71
2018-04-23T15:24:14.402Z,930.69
2018-04-23T15:24:27.389Z,930.69
2018-04-23T15:24:39.447Z,930.7
2018-04-23T15:24:51.923Z,930.7
2018-04-23T15:25:03.929Z,930.7
2018-04-23T15:25:16.866Z,930.68
2018-04-23T15:25:28.863Z,930.72
2018-04-23T15:25:41.851Z,930.71
2018-04-23T15:25:54.401Z,930.69
2018-04-23T15:26:08.444Z,930.64
2018-04-23T15:26:21.491Z,930.66
2018-04-23T15:26:34.451Z,930.68
2018-04-23T15:26:47.485Z,930.65
2018-04-23T15:27:00.103Z,930.66
2018-04-23T15:27:12.639Z,930.59
2018-04-23T15:27:25.152Z,930.6
2018-04-23T15:27:38.170Z,930.62
2018-04-23T15:27:50.265Z,930.6
2018-04-23T15:28:03.224Z,930.59
2018-04-23T15:28:16.221Z,930.58
2018-04-23T15:28:29.190Z,930.62
2018-04-23T15:28:42.185Z,930.59
2018-04-23T15:28:54.259Z,930.62
2018-04-23T15:29:06.751Z,930.57
2018-04-23T15:29:19.293Z,930.56
2018-04-23T15:29:32.317Z,930.58
2018-04-23T15:29:44.836Z,930.61
2018-04-23T15:29:57.770Z,930.56
2018-04-23T15:30:10.752Z,930.61
2018-04-23T15:30:23.704Z,930.58
2018-04-23T15:30:36.665Z,930.57
2018-04-23T15:30:49.654Z,930.57
2018-04-23T15:31:01.681Z,930.58
2018-04-23T15:31:14.189Z,930.56
2018-04-23T15:31:26.676Z,930.58
2018-04-23T15:31:38.711Z,930.58
2018-04-23T15:31:51.646Z,930.55
2018-04-23T15:32:04.614Z,930.58
2018-04-23T15:32:17.063Z,930.55
2018-04-23T15:32:29.578Z,930.59
2018-04-23T15:32:42.091Z,930.6
2018-04-23T15:32:55.048Z,930.6
2018-04-23T15:33:07.981Z,930.58
2018-04-23T15:33:20.457Z,930.59
2018-04-23T15:33:33.436Z,930.59
2018-04-23T15:33:45.952Z,930.57
2018-04-23T15:33:58.959Z,930.47
2018-04-23T15:34:10.975Z,930.46
2018-04-23T15:34:23.698Z,930.47
2018-04-23T15:34:36.233Z,930.48
2018-04-23T15:34:48.260Z,930.42
2018-04-23T15:35:00.338Z,930.39
2018-04-23T15:35:13.449Z,930.41
2018-04-23T15:35:26.503Z,930.38
2018-04-23T15:35:39.040Z,930.4
2018-04-23T15:35:50.582Z,930.41
2018-04-23T15:36:03.700Z,930.38
2018-04-23T15:36:16.214Z,930.39
2018-04-23T15:36:28.779Z,930.38
2018-04-23T15:36:41.757Z,930.37
2018-04-23T15:36:53.719Z,930.42
2018-04-23T15:37:06.227Z,930.4
2018-04-23T15:37:18.227Z,930.42
2018-04-23T15:37:30.725Z,930.38
2018-04-23T15:37:43.237Z,930.42
2018-04-23T15:37:55.295Z,930.39
2018-04-23T15:38:08.228Z,930.39
2018-04-23T15:38:20.675Z,930.41
2018-04-23T15:38:33.600Z,930.4
2018-04-23T15:38:45.609Z,930.43
2018-04-23T15:38:58.117Z,930.41
2018-04-23T15:39:10.611Z,930.45
2018-04-23T15:39:23.577Z,930.42
2018-04-23T15:39:36.129Z,930.43
2018-04-23T15:39:48.570Z,930.41
2018-04-23T15:40:01.024Z,930.4
2018-04-23T15:40:14.004Z,930.43
2018-04-23T15:40:26.495Z,930.44
2018-04-23T15:40:39.000Z,930.49
2018-04-23T15:40:51.555Z,930.5
2018-04-23T15:41:04.655Z,930.44
2018-04-23T15:41:17.777Z,930.45
2018-04-23T15:41:29.827Z,930.42
2018-04-23T15:41:41.902Z,930.44
2018-04-23T15:41:54.866Z,930.46
2018-04-23T15:42:07.870Z,930.42
2018-04-23T15:42:19.898Z,930.44
2018-04-23T15:42:32.417Z,930.45
2018-04-23T15:42:44.041Z,930.42
2018-04-23T15:42:56.577Z,930.39
2018-04-23T15:43:09.064Z,930.4
2018-04-23T15:43:21.612Z,930.42
2018-04-23T15:43:34.536Z,930.4
2018-04-23T15:43:47.527Z,930.41
2018-04-23T15:44:00.481Z,930.41
2018-04-23T15:44:13.496Z,930.37
2018-04-23T15:44:26.082Z,930.4
2018-04-23T15:44:38.122Z,930.38
2018-04-23T15:44:51.025Z,930.43
2018-04-23T15:45:03.540Z,930.37
2018-04-23T15:45:16.048Z,930.4
2018-04-23T15:45:28.178Z,930.39
2018-04-23T15:45:40.264Z,930.42
2018-04-23T15:45:52.374Z,930.44
2018-04-23T15:46:04.434Z,930.38
2018-04-23T15:46:16.468Z,930.43
2018-04-23T15:46:28.940Z,930.43
2018-04-23T15:46:41.879Z,930.4
2018-04-23T15:46:54.853Z,930.37
2018-04-23T15:47:07.310Z,930.41
2018-04-23T15:47:19.914Z,930.42
2018-04-23T15:47:32.423Z,930.41
2018-04-23T15:47:44.915Z,930.42
2018-04-23T15:47:57.892Z,930.41
2018-04-23T15:48:10.834Z,930.41
2018-04-23T15:48:22.886Z,930.41
2018-04-23T15:48:34.927Z,930.43
2018-04-23T15:48:46.979Z,930.45
2018-04-23T15:48:58.556Z,930.46
2018-04-23T15:49:10.593Z,930.49
2018-04-23T15:49:23.056Z,930.49
2018-04-23T15:49:36.202Z,930.44
2018-04-23T15:49:48.665Z,930.49
2018-04-23T15:50:01.144Z,930.49
2018-04-23T15:50:13.185Z,930.48
2018-04-23T15:50:25.244Z,930.46
2018-04-23T15:50:37.791Z,930.54
2018-04-23T15:50:50.376Z,930.47
2018-04-23T15:51:02.883Z,930.45
2018-04-23T15:51:14.477Z,930.45
2018-04-23T15:51:27.478Z,930.4
2018-04-23T15:51:39.998Z,930.36
2018-04-23T15:51:52.968Z,930.39
2018-04-23T15:52:05.429Z,930.39
2018-04-23T15:52:18.433Z,930.34
2018-04-23T15:52:31.399Z,930.35
2018-04-23T15:52:44.003Z,930.35
2018-04-23T15:52:55.565Z,930.37
2018-04-23T15:53:08.105Z,930.33
2018-04-23T15:53:20.647Z,930.31
2018-04-23T15:53:33.181Z,930.34
2018-04-23T15:53:46.142Z,930.34
2018-04-23T15:53:58.190Z,930.31
2018-04-23T15:54:10.691Z,930.3
2018-04-23T15:54:23.705Z,930.28
2018-04-23T15:54:36.186Z,930.28
2018-04-23T15:54:48.211Z,930.31
2018-04-23T15:55:00.682Z,930.3
2018-04-23T15:55:13.671Z,930.28
2018-04-23T15:55:25.275Z,930.31
2018-04-23T15:55:38.210Z,930.29
2018-04-23T15:55:50.769Z,930.29
2018-04-23T15:56:03.754Z,930.26
2018-04-23T15:56:16.281Z,930.27
2018-04-23T15:56:28.788Z,930.24
2018-04-23T15:56:41.278Z,930.25
2018-04-23T15:56:54.281Z,930.25
2018-04-23T15:57:07.276Z,930.25
2018-04-23T15:57:19.316Z,930.26
2018-04-23T15:57:32.297Z,930.29
2018-04-23T15:57:44.857Z,930.23
2018-04-23T15:57:57.370Z,930.23
2018-04-23T15:58:10.369Z,930.22
2018-04-23T15:58:23.052Z,930.21
2018-04-23T15:58:36.259Z,930.23
2018-04-23T15:58:49.186Z,930.21
2018-04-23T15:59:02.172Z,930.22
2018-04-23T15:59:14.724Z,930.23
2018-04-23T15:59:27.197Z,930.2
2018-04-23T15:59:39.753Z,930.2
2018-04-23T15:59:52.704Z,930.2
2018-04-23T16:00:05.245Z,930.2
2018-04-23T16:00:17.238Z,930.17
2018-04-23T16:00:29.783Z,930.17
2018-04-23T16:00:42.279Z,930.21
2018-04-23T16:00:54.285Z,930.19
2018-04-23T16:01:06.366Z,930.23
2018-04-23T16:01:18.422Z,930.2
2018-04-23T16:01:30.927Z,930.16
2018-04-23T16:01:43.387Z,930.15
2018-04-23T16:01:55.840Z,930.14
2018-04-23T16:02:07.871Z,930.14
2018-04-23T16:02:19.849Z,930.14
2018-04-23T16:02:32.802Z,930.14
2018-04-23T16:02:45.319Z,930.11
2018-04-23T16:02:58.283Z,930.14
2018-04-23T16:03:10.259Z,930.13
2018-04-23T16:03:22.292Z,930.1
2018-04-23T16:03:34.748Z,930.1
2018-04-23T16:03:47.250Z,930.11
2018-04-23T16:04:00.423Z,930.09
2018-04-23T16:04:12.943Z,930.09
2018-04-23T16:04:25.410Z,930.04
2018-04-23T16:04:38.644Z,930.1
2018-04-23T16:04:51.140Z,930.07
2018-04-23T16:05:04.109Z,930.07
2018-04-23T16:05:17.058Z,930.07
2018-04-23T16:05:29.571Z,930.07
2018-04-23T16:05:42.065Z,930.07
2018-04-23T16:05:54.582Z,930.06
2018-04-23T16:06:07.076Z,930.11
2018-04-23T16:06:19.591Z,930.1
2018-04-23T16:06:32.593Z,930.05
2018-04-23T16:06:45.109Z,930.14
2018-04-23T16:06:58.080Z,930.18
2018-04-23T16:07:10.554Z,930.2
2018-04-23T16:07:23.508Z,930.27
2018-04-23T16:07:35.994Z,930.24
2018-04-23T16:07:48.911Z,930.22
2018-04-23T16:08:01.894Z,930.22
2018-04-23T16:08:14.427Z,930.24
2018-04-23T16:08:26.872Z,930.25
2018-04-23T16:08:39.849Z,930.21
2018-04-23T16:08:52.792Z,930.23
2018-04-23T16:09:05.318Z,930.2
2018-04-23T16:09:18.327Z,930.2
2018-04-23T16:09:31.272Z,930.21
2018-04-23T16:09:44.300Z,930.2
2018-04-23T16:09:57.246Z,930.21
2018-04-23T16:10:10.251Z,930.21
2018-04-23T16:10:22.831Z,930.18
2018-04-23T16:10:35.449Z,930.16
2018-04-23T16:10:47.943Z,930.19
2018-04-23T16:11:00.956Z,930.18
2018-04-23T16:11:13.522Z,930.15
2018-04-23T16:11:25.557Z,930.2
2018-04-23T16:11:38.531Z,930.17
2018-04-23T16:11:51.531Z,930.16
2018-04-23T16:12:03.996Z,930.17
2018-04-23T16:12:16.919Z,930.19
2018-04-23T16:12:29.900Z,930.16
2018-04-23T16:12:42.906Z,930.15
2018-04-23T16:12:55.888Z,930.17
2018-04-23T16:13:08.869Z,930.16
2018-04-23T16:13:21.816Z,930.15
2018-04-23T16:13:34.833Z,930.13
2018-04-23T16:13:47.794Z,930.14
2018-04-23T16:14:00.338Z,930.13
2018-04-23T16:14:12.822Z,930.15
2018-04-23T16:14:24.836Z,930.15
2018-04-23T16:14:36.915Z,930.1
2018-04-23T16:14:49.419Z,930.14
2018-04-23T16:15:01.946Z,930.12
2018-04-23T16:15:14.871Z,930.08
2018-04-23T16:15:27.391Z,930.08
2018-04-23T16:15:39.430Z,930.05
2018-04-23T16:15:51.463Z,930.07
2018-04-23T16:16:03.504Z,930.08
2018-04-23T16:16:16.034Z,930.05
2018-04-23T16:16:28.532Z,930.08
2018-04-23T16:16:40.604Z,930.05
2018-04-23T16:16:52.646Z,930.04
2018-04-23T16:17:05.151Z,930.07
2018-04-23T16:17:18.162Z,930.03
2018-04-23T16:17:30.677Z,930.06
2018-04-23T16:17:43.629Z,930.03
2018-04-23T16:17:56.622Z,930.04
2018-04-23T16:18:09.116Z,930.04
2018-04-23T16:18:22.160Z,930.07
2018-04-23T16:18:34.886Z,930.04
2018-04-23T16:18:47.357Z,930.04
2018-04-23T16:19:00.363Z,930.04
2018-04-23T16:19:12.420Z,930.04
2018-04-23T16:19:24.934Z,929.99
2018-04-23T16:19:36.960Z,929.99
2018-04-23T16:19:50.751Z,929.97
2018-04-23T16:20:03.294Z,929.99
2018-04-23T16:20:16.204Z,929.98
2018-04-23T16:20:29.169Z,929.98
2018-04-23T16:20:42.105Z,929.95
2018-04-23T16:20:54.652Z,929.98
2018-04-23T16:21:07.146Z,929.93
2018-04-23T16:21:19.198Z,929.95
2018-04-23T16:21:31.670Z,929.95
2018-04-23T16:21:44.703Z,929.97
2018-04-23T16:21:56.767Z,929.96
2018-04-23T16:22:08.339Z,929.94
2018-04-23T16:22:21.311Z,929.96
2018-04-23T16:22:33.778Z,929.97
2018-04-23T16:22:46.726Z,929.93
2018-04-23T16:22:58.728Z,929.93
2018-04-23T16:23:11.717Z,929.92
2018-04-23T16:23:24.715Z,929.92
2018-04-23T16:23:36.734Z,929.96
2018-04-23T16:23:48.780Z,929.92
2018-04-23T16:24:01.347Z,929.9
2018-04-23T16:24:13.789Z,929.91
2018-04-23T16:24:26.333Z,929.87
2018-04-23T16:24:38.499Z,929.91
2018-04-23T16:24:51.516Z,929.9
2018-04-23T16:25:04.012Z,929.87
2018-04-23T16:25:16.071Z,929.91
2018-04-23T16:25:28.610Z,929.87
2018-04-23T16:25:40.205Z,929.85
2018-04-23T16:25:52.241Z,929.88
2018-04-23T16:26:04.719Z,929.87
2018-04-23T16:26:17.698Z,929.87
2018-04-23T16:26:30.613Z,929.85
2018-04-23T16:26:42.649Z,929.84
2018-04-23T16:26:54.732Z,929.86
2018-04-23T16:27:06.800Z,929.87
2018-04-23T16:27:19.327Z,929.87
2018-04-23T16:27:32.304Z,929.88
2018-04-23T16:27:45.281Z,929.91
2018-04-23T16:27:56.876Z,929.87
2018-04-23T16:28:09.411Z,929.89
2018-04-23T16:28:21.898Z,929.87
2018-04-23T16:28:34.383Z,929.9
2018-04-23T16:28:46.912Z,929.87
2018-04-23T16:28:59.927Z,929.84
2018-04-23T16:29:12.419Z,929.87
2018-04-23T16:29:25.414Z,929.86
2018-04-23T16:29:38.418Z,929.86
2018-04-23T16:29:50.916Z,929.88
2018-04-23T16:30:03.982Z,929.85
2018-04-23T16:30:15.129Z,929.87
2018-04-23T16:30:28.135Z,929.84
2018-04-23T16:30:41.098Z,929.9
2018-04-23T16:30:53.549Z,929.84
2018-04-23T16:31:06.035Z,929.91
2018-04-23T16:31:18.548Z,929.89
2018-04-23T16:31:31.039Z,929.87
2018-04-23T16:31:43.600Z,929.87
2018-04-23T16:31:56.098Z,929.86
2018-04-23T16:32:09.103Z,929.85
2018-04-23T16:32:21.603Z,929.85
2018-04-23T16:32:33.621Z,929.85
2018-04-23T16:32:46.607Z,929.84
2018-04-23T16:32:58.708Z,929.84
2018-04-23T16:33:10.771Z,929.82
2018-04-23T16:33:23.272Z,929.85
2018-04-23T16:33:35.800Z,929.81
2018-04-23T16:33:47.361Z,929.84
2018-04-23T16:33:59.373Z,929.79
2018-04-23T16:34:10.940Z,929.8
2018-04-23T16:34:23.444Z,929.81
2018-04-23T16:34:35.984Z,929.78
2018-04-23T16:34:48.958Z,929.78
2018-04-23T16:35:01.892Z,929.79
2018-04-23T16:35:14.398Z,929.77
2018-04-23T16:35:27.346Z,929.77
2018-04-23T16:35:40.274Z,929.81
2018-04-23T16:35:53.304Z,929.76
2018-04-23T16:36:04.894Z,929.78
2018-04-23T16:36:16.916Z,929.8
2018-04-23T16:36:29.905Z,929.75
2018-04-23T16:36:42.406Z,929.78
2018-04-23T16:36:54.909Z,929.7
2018-04-23T16:37:07.850Z,929.74
2018-04-23T16:37:19.865Z,929.72
2018-04-23T16:37:32.759Z,929.7
2018-04-23T16:37:45.725Z,929.72
2018-04-23T16:37:57.828Z,929.69
2018-04-23T16:38:10.358Z,929.74
2018-04-23T16:38:22.890Z,929.72
2018-04-23T16:38:35.848Z,929.7
2018-04-23T16:38:48.374Z,929.74
2018-04-23T16:39:00.854Z,929.72
2018-04-23T16:39:12.917Z,929.73
2018-04-23T16:39:25.927Z,929.73
2018-04-23T16:39:38.031Z,929.71
2018-04-23T16:39:51.198Z,929.68
2018-04-23T16:40:03.708Z,929.7
2018-04-23T16:40:16.723Z,929.7
2018-04-23T16:40:29.645Z,929.68
2018-04-23T16:40:42.626Z,929.67
2018-04-23T16:40:55.159Z,929.71
2018-04-23T16:41:07.679Z,929.7
2018-04-23T16:41:20.157Z,929.69
2018-04-23T16:41:33.187Z,929.68
2018-04-23T16:41:46.126Z,929.67
2018-04-23T16:41:58.617Z,929.72
2018-04-23T16:42:11.607Z,929.73
2018-04-23T16:42:24.550Z,929.71
2018-04-23T16:42:37.519Z,929.7
2018-04-23T16:42:50.049Z,929.72
2018-04-23T16:43:02.081Z,929.71
2018-04-23T16:43:15.073Z,929.72
2018-04-23T16:43:27.644Z,929.71
2018-04-23T16:43:40.687Z,929.73
2018-04-23T16:43:53.208Z,929.72
2018-04-23T16:44:05.196Z,929.73
2018-04-23T16:44:18.191Z,929.75
2018-04-23T16:44:40.584Z,929.74
2018-04-23T16:44:58.051Z,929.73
2018-04-23T16:45:10.598Z,929.76
2018-04-23T16:45:23.534Z,929.73
2018-04-23T16:45:36.091Z,929.74
2018-04-23T16:45:49.112Z,929.74
2018-04-23T16:46:01.598Z,929.72
2018-04-23T16:46:14.115Z,929.74
2018-04-23T16:46:27.084Z,929.7
2018-04-23T16:46:39.157Z,929.71
2018-04-23T16:46:52.134Z,929.73
2018-04-23T16:47:04.662Z,929.75
2018-04-23T16:47:17.167Z,929.71
2018-04-23T16:47:29.192Z,929.71
2018-04-23T16:47:42.102Z,929.73
2018-04-23T16:47:55.102Z,929.71
2018-04-23T16:48:07.612Z,929.72
2018-04-23T16:48:20.603Z,929.77
2018-04-23T16:48:33.111Z,929.76
2018-04-23T16:48:45.146Z,929.71
2018-04-23T16:48:56.682Z,929.72
2018-04-23T16:49:09.181Z,929.76
2018-04-23T16:49:22.183Z,929.82
2018-04-23T16:49:34.228Z,929.74
2018-04-23T16:49:46.779Z,929.73
2018-04-23T16:50:00.019Z,929.74
2018-04-23T16:50:12.566Z,929.74
2018-04-23T16:50:25.061Z,929.74
2018-04-23T16:50:38.056Z,929.76
2018-04-23T16:50:50.553Z,929.74
2018-04-23T16:51:03.512Z,929.73
2018-04-23T16:51:16.049Z,929.77
2018-04-23T16:51:29.065Z,929.75
2018-04-23T16:51:41.569Z,929.79
2018-04-23T16:51:54.083Z,929.75
2018-04-23T16:52:06.114Z,929.76
2018-04-23T16:52:19.067Z,929.76
2018-04-23T16:52:32.101Z,929.75
2018-04-23T16:52:44.613Z,929.77
2018-04-23T16:52:57.600Z,929.74
2018-04-23T16:53:10.170Z,929.76
2018-04-23T16:53:22.728Z,929.76
2018-04-23T16:53:34.814Z,929.77
2018-04-23T16:53:47.324Z,929.77
2018-04-23T16:53:59.314Z,929.76
2018-04-23T16:54:12.265Z,929.73
2018-04-23T16:54:24.792Z,929.77
2018-04-23T16:54:37.296Z,929.73
2018-04-23T16:54:49.951Z,929.75
2018-04-23T16:55:02.969Z,929.79
2018-04-23T16:55:15.037Z,929.79
2018-04-23T16:55:28.004Z,929.77
2018-04-23T16:55:40.513Z,929.72
2018-04-23T16:55:53.500Z,929.75
2018-04-23T16:56:05.529Z,929.74
2018-04-23T16:56:18.508Z,929.77
2018-04-23T16:56:31.530Z,929.75
2018-04-23T16:56:44.066Z,929.8
2018-04-23T16:56:56.585Z,929.78
2018-04-23T16:57:08.669Z,929.81
2018-04-23T16:57:21.705Z,929.78
2018-04-23T16:57:34.247Z,929.77
2018-04-23T16:57:46.679Z,929.78
2018-04-23T16:57:59.620Z,929.8
2018-04-23T16:58:12.577Z,929.78
2018-04-23T16:58:25.095Z,929.79
2018-04-23T16:58:37.597Z,929.8
2018-04-23T16:58:50.591Z,929.77
2018-04-23T16:59:03.146Z,929.77
2018-04-23T16:59:15.674Z,929.77
2018-04-23T16:59:28.715Z,929.75
2018-04-23T16:59:41.198Z,929.77
2018-04-23T16:59:53.656Z,929.77
2018-04-23T17:00:06.628Z,929.78
2018-04-23T17:00:18.662Z,929.79
2018-04-23T17:00:31.673Z,929.8
2018-04-23T17:00:44.160Z,929.8
2018-04-23T17:00:56.671Z,929.83
2018-04-23T17:01:09.209Z,929.83
2018-04-23T17:01:22.143Z,929.8
2018-04-23T17:01:35.163Z,929.82
2018-04-23T17:01:47.669Z,929.84
2018-04-23T17:02:00.635Z,929.84
2018-04-23T17:02:13.209Z,929.84
2018-04-23T17:02:26.206Z,929.83
2018-04-23T17:02:38.788Z,929.85
2018-04-23T17:02:52.042Z,929.87
2018-04-23T17:03:04.532Z,929.85
2018-04-23T17:03:17.064Z,929.84
2018-04-23T17:03:30.030Z,929.84
2018-04-23T17:03:43.035Z,929.85
2018-04-23T17:03:55.137Z,929.83
2018-04-23T17:04:07.653Z,929.86
2018-04-23T17:04:20.160Z,929.87
2018-04-23T17:04:32.664Z,929.88
2018-04-23T17:04:45.597Z,929.87
2018-04-23T17:04:58.753Z,929.87
2018-04-23T17:05:11.735Z,929.85
2018-04-23T17:05:24.686Z,929.87
2018-04-23T17:05:37.142Z,929.85
2018-04-23T17:05:50.032Z,929.87
2018-04-23T17:06:02.030Z,929.9
2018-04-23T17:06:14.552Z,929.9
2018-04-23T17:06:27.503Z,929.9
2018-04-23T17:06:40.417Z,929.85
2018-04-23T17:06:53.376Z,929.88
2018-04-23T17:07:05.891Z,929.88
2018-04-23T17:07:17.892Z,929.85
2018-04-23T17:07:30.851Z,929.88
2018-04-23T17:07:43.418Z,929.86
2018-04-23T17:07:55.462Z,929.85
2018-04-23T17:08:08.634Z,929.86
2018-04-23T17:08:20.224Z,929.83
2018-04-23T17:08:31.800Z,929.86
2018-04-23T17:08:43.431Z,929.81
2018-04-23T17:08:55.950Z,929.8
2018-04-23T17:09:08.041Z,929.85
2018-04-23T17:09:21.054Z,929.82
2018-04-23T17:09:33.119Z,929.8
2018-04-23T17:09:45.614Z,929.8
2018-04-23T17:09:58.746Z,929.8
2018-04-23T17:10:09.863Z,929.79
2018-04-23T17:10:22.809Z,929.84
2018-04-23T17:10:34.824Z,929.8
2018-04-23T17:10:47.786Z,929.81
2018-04-23T17:11:00.342Z,929.79
2018-04-23T17:11:13.276Z,929.74
2018-04-23T17:11:26.247Z,929.76
2018-04-23T17:11:38.789Z,929.74
2018-04-23T17:11:51.787Z,929.72